createdAt,value
2023-05-19T00:01:41.753Z,96388.59
2023-05-19T00:04:08.434Z,96391.47
2023-05-19T00:06:35.773Z,96393.44
2023-05-19T00:09:02.622Z,96384.16
2023-05-19T00:11:29.290Z,96384.34
2023-05-19T00:13:55.935Z,96393.63
2023-05-19T00:16:23.540Z,96386.16
2023-05-19T00:18:50.307Z,96388.97
2023-05-19T00:21:16.908Z,96380.63
2023-05-19T00:23:43.481Z,96379.78
2023-05-19T00:26:10.272Z,96377.31
2023-05-19T00:28:39.382Z,96374.66
2023-05-19T00:31:07.227Z,96369.50
2023-05-19T00:33:34.122Z,96369.53
2023-05-19T00:36:00.756Z,96365.09
2023-05-19T00:38:27.357Z,96362.56
2023-05-19T00:40:54.346Z,96370.25
2023-05-19T00:43:20.957Z,96368.78
2023-05-19T00:45:50.401Z,96369.53
2023-05-19T00:48:17.183Z,96366.00
2023-05-19T00:50:43.736Z,96360.81
2023-05-19T00:53:10.355Z,96362.44
2023-05-19T00:55:39.311Z,96366.56
2023-05-19T00:58:05.858Z,96363.94
2023-05-19T01:00:33.629Z,96362.16
2023-05-19T01:03:00.745Z,96362.16
2023-05-19T01:05:29.722Z,96370.25
2023-05-19T01:07:56.363Z,96359.91
2023-05-19T01:10:22.989Z,96358.13
2023-05-19T01:12:49.620Z,96365.56
2023-05-19T01:15:16.255Z,96361.50
2023-05-19T01:20:31.237Z,96362.47
2023-05-19T01:22:58.089Z,96357.38
2023-05-19T01:25:25.024Z,96359.09
2023-05-19T01:27:51.996Z,96362.63
2023-05-19T01:30:18.492Z,96362.81
2023-05-19T01:32:45.131Z,96367.34
2023-05-19T01:35:11.822Z,96369.91
2023-05-19T01:37:38.462Z,96368.91
2023-05-19T01:40:04.938Z,96370.81
2023-05-19T01:42:31.601Z,96364.53
2023-05-19T01:44:58.118Z,96371.47
2023-05-19T01:47:24.771Z,96369.69
2023-05-19T01:49:51.410Z,96360.28
2023-05-19T01:52:17.989Z,96368.69
2023-05-19T01:54:44.598Z,96364.94
2023-05-19T01:57:11.235Z,96357.75
2023-05-19T01:59:37.844Z,96362.59
2023-05-19T02:02:04.491Z,96361.84
2023-05-19T02:04:31.094Z,96358.91
2023-05-19T02:06:57.800Z,96362.97
2023-05-19T02:09:24.726Z,96364.47
2023-05-19T02:11:51.336Z,96360.09
2023-05-19T02:14:18.041Z,96365.09
2023-05-19T02:16:44.950Z,96355.09
2023-05-19T02:19:11.974Z,96354.50
2023-05-19T02:21:39.529Z,96356.19
2023-05-19T02:24:06.533Z,96356.53
2023-05-19T02:26:33.147Z,96352.25
2023-05-19T02:28:59.780Z,96360.03
2023-05-19T02:31:26.374Z,96352.81
2023-05-19T02:33:53.054Z,96357.78
2023-05-19T02:36:19.874Z,96359.03
2023-05-19T02:38:46.391Z,96360.66
2023-05-19T02:41:13.966Z,96360.38
2023-05-19T02:43:40.571Z,96364.47
2023-05-19T02:46:07.160Z,96356.06
2023-05-19T02:48:33.894Z,96356.03
2023-05-19T02:51:01.633Z,96356.31
2023-05-19T02:53:28.542Z,96352.00
2023-05-19T02:55:55.494Z,96359.94
2023-05-19T02:58:23.937Z,96354.84
2023-05-19T03:00:50.819Z,96349.34
2023-05-19T03:03:17.771Z,96337.88
2023-05-19T03:05:44.333Z,96344.44
2023-05-19T03:08:11.237Z,96346.53
2023-05-19T03:10:40.207Z,96350.09
2023-05-19T03:13:06.727Z,96348.50
2023-05-19T03:15:33.470Z,96342.34
2023-05-19T03:18:00.225Z,96334.94
2023-05-19T03:20:27.185Z,96333.84
2023-05-19T03:22:53.755Z,96331.69
2023-05-19T03:25:20.457Z,96336.25
2023-05-19T03:27:47.043Z,96323.19
2023-05-19T03:30:13.712Z,96323.84
2023-05-19T03:32:40.327Z,96329.44
2023-05-19T03:35:06.956Z,96330.81
2023-05-19T03:37:33.522Z,96322.44
2023-05-19T03:40:00.214Z,96325.22
2023-05-19T03:42:26.901Z,96326.75
2023-05-19T03:44:56.383Z,96325.81
2023-05-19T03:47:23.085Z,96337.47
2023-05-19T03:49:49.680Z,96338.13
2023-05-19T03:52:16.329Z,96341.16
2023-05-19T03:54:42.939Z,96336.59
2023-05-19T03:57:09.530Z,96344.69
2023-05-19T03:59:36.762Z,96339.09
2023-05-19T04:02:03.374Z,96349.69
2023-05-19T04:04:30.039Z,96356.53
2023-05-19T04:06:56.749Z,96357.41
2023-05-19T04:09:23.300Z,96351.38
2023-05-19T04:11:49.878Z,96353.19
2023-05-19T04:14:17.460Z,96344.94
2023-05-19T04:16:44.066Z,96357.16
2023-05-19T04:19:10.837Z,96355.97
2023-05-19T04:21:37.338Z,96359.22
2023-05-19T04:24:04.239Z,96359.19
2023-05-19T04:26:31.202Z,96352.47
2023-05-19T04:28:57.878Z,96359.44
2023-05-19T04:31:24.795Z,96366.09
2023-05-19T04:33:51.486Z,96364.38
2023-05-19T04:36:18.581Z,96363.97
2023-05-19T04:38:45.129Z,96367.75
2023-05-19T04:41:11.691Z,96365.13
2023-05-19T04:43:38.287Z,96368.75
2023-05-19T04:46:05.286Z,96362.50
2023-05-19T04:48:31.831Z,96360.19
2023-05-19T04:50:58.722Z,96369.47
2023-05-19T04:53:25.774Z,96366.16
2023-05-19T04:55:55.529Z,96368.81
2023-05-19T04:58:22.223Z,96370.69
2023-05-19T05:00:49.226Z,96368.09
2023-05-19T05:03:15.932Z,96363.84
2023-05-19T05:05:42.545Z,96367.16
2023-05-19T05:08:09.198Z,96371.00
2023-05-19T05:10:35.914Z,96373.56
2023-05-19T05:13:03.177Z,96381.53
2023-05-19T05:15:29.810Z,96376.88
2023-05-19T05:17:56.568Z,96366.00
2023-05-19T05:20:25.591Z,96366.09
2023-05-19T05:22:52.293Z,96369.69
2023-05-19T05:25:21.077Z,96362.72
2023-05-19T05:27:47.823Z,96361.09
2023-05-19T05:30:14.660Z,96359.09
2023-05-19T05:35:25.344Z,96362.28
2023-05-19T05:37:52.609Z,96357.75
2023-05-19T05:40:21.344Z,96360.50
2023-05-19T05:42:48.062Z,96359.84
2023-05-19T05:45:14.685Z,96364.09
2023-05-19T05:47:41.296Z,96358.50
2023-05-19T05:50:08.060Z,96362.66
2023-05-19T05:52:34.735Z,96356.53
2023-05-19T05:55:01.397Z,96354.91
2023-05-19T05:57:28.032Z,96357.16
2023-05-19T05:59:55.004Z,96356.09
2023-05-19T06:02:24.096Z,96349.69
2023-05-19T06:04:50.859Z,96359.03
2023-05-19T06:07:18.519Z,96352.94
2023-05-19T06:09:45.573Z,96354.78
2023-05-19T06:12:12.413Z,96354.66
2023-05-19T06:14:38.987Z,96350.81
2023-05-19T06:17:05.877Z,96346.19
2023-05-19T06:19:32.765Z,96347.66
2023-05-19T06:21:59.331Z,96351.72
2023-05-19T06:24:25.904Z,96346.16
2023-05-19T06:26:52.481Z,96351.47
2023-05-19T06:29:19.320Z,96353.69
2023-05-19T06:31:46.245Z,96349.94
2023-05-19T06:34:13.917Z,96342.50
2023-05-19T06:36:40.628Z,96338.47
2023-05-19T06:39:08.228Z,96343.94
2023-05-19T06:41:35.174Z,96343.38
2023-05-19T06:44:01.912Z,96346.94
2023-05-19T06:46:29.710Z,96345.56
2023-05-19T06:48:59.506Z,96343.31
2023-05-19T06:51:26.462Z,96346.78
2023-05-19T06:53:54.485Z,96344.16
2023-05-19T06:56:21.128Z,96342.34
2023-05-19T06:58:50.825Z,96341.47
2023-05-19T07:01:17.539Z,96335.63
2023-05-19T07:03:46.434Z,96336.66
2023-05-19T07:06:13.243Z,96336.53
2023-05-19T07:08:39.792Z,96335.66
2023-05-19T07:11:09.665Z,96338.09
2023-05-19T07:13:39.818Z,96342.50
2023-05-19T07:16:06.639Z,96339.09
2023-05-19T07:18:34.004Z,96345.84
2023-05-19T07:21:00.939Z,96337.94
2023-05-19T07:23:27.542Z,96350.66
2023-05-19T07:25:54.313Z,96341.22
2023-05-19T07:28:21.170Z,96348.75
2023-05-19T07:30:48.718Z,96336.63
2023-05-19T07:33:15.861Z,96344.69
2023-05-19T07:36:20.329Z,96337.50
2023-05-19T07:38:45.002Z,96338.09
2023-05-19T07:41:11.776Z,96329.81
2023-05-19T07:43:38.579Z,96325.84
2023-05-19T07:46:05.764Z,96325.00
2023-05-19T07:48:32.388Z,96321.22
2023-05-19T07:51:01.570Z,96322.44
2023-05-19T07:53:28.394Z,96321.00
2023-05-19T07:55:55.905Z,96319.22
2023-05-19T07:58:24.585Z,96326.09
2023-05-19T08:00:51.250Z,96315.28
2023-05-19T08:03:19.290Z,96322.56
2023-05-19T08:05:46.107Z,96315.31
2023-05-19T08:08:15.017Z,96314.75
2023-05-19T08:10:41.880Z,96313.72
2023-05-19T08:13:08.594Z,96318.41
2023-05-19T08:15:38.349Z,96318.56
2023-05-19T08:18:05.249Z,96316.72
2023-05-19T08:20:32.783Z,96332.25
2023-05-19T08:23:00.146Z,96321.13
2023-05-19T08:25:27.707Z,96315.47
2023-05-19T08:27:54.285Z,96320.78
2023-05-19T08:30:20.861Z,96320.19
2023-05-19T08:32:47.533Z,96313.47
2023-05-19T08:35:14.242Z,96310.81
2023-05-19T08:37:40.808Z,96307.38
2023-05-19T08:40:07.437Z,96306.19
2023-05-19T08:42:34.220Z,96306.03
2023-05-19T08:45:00.977Z,96303.97
2023-05-19T08:47:31.725Z,96297.13
2023-05-19T08:49:58.375Z,96302.25
2023-05-19T08:52:26.119Z,96302.59
2023-05-19T08:54:52.872Z,96304.31
2023-05-19T08:57:21.924Z,96300.31
2023-05-19T08:59:48.597Z,96295.38
2023-05-19T09:02:15.180Z,96301.38
2023-05-19T09:04:41.736Z,96296.09
2023-05-19T09:07:08.373Z,96293.66
2023-05-19T09:09:36.400Z,96290.06
2023-05-19T09:12:03.157Z,96294.06
2023-05-19T09:14:30.356Z,96295.41
2023-05-19T09:16:57.050Z,96284.38
2023-05-19T09:19:28.036Z,96282.44
2023-05-19T09:21:54.714Z,96275.34
2023-05-19T09:24:21.463Z,96280.97
2023-05-19T09:26:49.314Z,96272.13
2023-05-19T09:29:18.066Z,96265.00
2023-05-19T09:31:44.923Z,96262.00
2023-05-19T09:34:11.933Z,96273.16
2023-05-19T09:36:39.021Z,96267.50
2023-05-19T09:39:06.040Z,96266.28
2023-05-19T09:41:32.733Z,96266.31
2023-05-19T09:43:59.463Z,96265.53
2023-05-19T09:46:26.040Z,96267.84
2023-05-19T09:48:52.647Z,96267.00
2023-05-19T09:51:19.446Z,96259.78
2023-05-19T09:53:46.384Z,96264.22
2023-05-19T09:56:13.033Z,96256.88
2023-05-19T09:58:39.940Z,96254.25
2023-05-19T10:01:07.079Z,96258.97
2023-05-19T10:03:34.024Z,96253.59
2023-05-19T10:06:02.948Z,96259.50
2023-05-19T10:08:29.749Z,96249.44
2023-05-19T10:10:56.689Z,96247.03
2023-05-19T10:13:23.223Z,96253.78
2023-05-19T10:15:58.190Z,96253.19
2023-05-19T10:18:26.323Z,96245.41
2023-05-19T10:20:53.250Z,96258.56
2023-05-19T10:23:20.346Z,96254.94
2023-05-19T10:25:46.941Z,96239.00
2023-05-19T10:28:13.645Z,96248.16
2023-05-19T10:30:40.697Z,96248.69
2023-05-19T10:33:09.779Z,96253.59
2023-05-19T10:35:37.038Z,96252.72
2023-05-19T10:38:04.073Z,96245.25
2023-05-19T10:40:32.252Z,96255.53
2023-05-19T10:42:59.400Z,96242.56
2023-05-19T10:45:26.610Z,96244.31
2023-05-19T10:47:54.317Z,96241.81
2023-05-19T10:50:21.279Z,96243.66
2023-05-19T10:52:58.135Z,96249.00
2023-05-19T10:55:46.401Z,96240.13
2023-05-19T10:58:15.988Z,96231.41
2023-05-19T11:00:42.542Z,96237.84
2023-05-19T11:03:10.265Z,96238.25
2023-05-19T11:05:36.822Z,96230.72
2023-05-19T11:08:03.711Z,96235.91
2023-05-19T11:10:30.696Z,96242.38
2023-05-19T11:15:26.288Z,96236.44
2023-05-19T11:17:53.999Z,96231.81
2023-05-19T11:20:20.525Z,96224.97
2023-05-19T11:22:47.144Z,96224.13
2023-05-19T11:25:13.793Z,96222.78
2023-05-19T11:27:40.963Z,96219.59
2023-05-19T11:30:07.541Z,96222.19
2023-05-19T11:35:05.607Z,96228.09
2023-05-19T11:37:34.640Z,96221.31
2023-05-19T11:40:01.876Z,96216.41
2023-05-19T11:42:30.723Z,96204.50
2023-05-19T11:44:59.308Z,96204.16
2023-05-19T11:47:26.436Z,96207.84
2023-05-19T11:49:58.732Z,96210.06
2023-05-19T11:52:25.355Z,96203.16
2023-05-19T11:54:59.505Z,96203.03
2023-05-19T11:57:30.251Z,96193.69
2023-05-19T11:59:57.415Z,96203.69
2023-05-19T12:02:24.458Z,96196.13
2023-05-19T12:04:53.443Z,96196.63
2023-05-19T12:07:20.192Z,96191.69
2023-05-19T12:09:46.735Z,96189.81
2023-05-19T12:12:13.225Z,96180.31
2023-05-19T12:14:48.797Z,96189.03
2023-05-19T12:17:15.414Z,96184.19
2023-05-19T12:19:49.126Z,96181.00
2023-05-19T12:22:18.424Z,96189.31
2023-05-19T12:24:45.664Z,96183.00
2023-05-19T12:27:12.279Z,96174.19
2023-05-19T12:29:39.991Z,96188.31
2023-05-19T12:32:06.602Z,96177.00
2023-05-19T12:34:44.848Z,96190.50
2023-05-19T12:37:12.457Z,96177.84
2023-05-19T12:39:39.377Z,96181.50
2023-05-19T12:42:06.409Z,96183.63
2023-05-19T12:44:33.322Z,96182.00
2023-05-19T12:46:59.960Z,96182.41
2023-05-19T12:49:27.445Z,96174.75
2023-05-19T12:51:54.034Z,96183.13
2023-05-19T12:54:20.797Z,96185.28
2023-05-19T12:56:47.898Z,96185.78
2023-05-19T12:59:18.858Z,96178.63
2023-05-19T13:01:50.605Z,96185.34
2023-05-19T13:04:17.437Z,96168.13
2023-05-19T13:06:44.038Z,96177.44
2023-05-19T13:09:10.732Z,96171.31
2023-05-19T13:11:37.329Z,96166.28
2023-05-19T13:14:06.267Z,96178.88
2023-05-19T13:16:32.824Z,96173.03
2023-05-19T13:18:59.863Z,96163.06
2023-05-19T13:21:27.312Z,96151.94
2023-05-19T13:23:53.919Z,96173.09
2023-05-19T13:26:20.566Z,96160.91
2023-05-19T13:28:49.513Z,96162.25
2023-05-19T13:31:16.242Z,96152.47
2023-05-19T13:33:42.944Z,96159.47
2023-05-19T13:36:10.519Z,96167.59
2023-05-19T13:38:39.226Z,96169.06
2023-05-19T13:41:05.894Z,96162.41
2023-05-19T13:43:35.613Z,96162.22
2023-05-19T13:46:02.284Z,96171.84
2023-05-19T13:48:31.037Z,96169.81
2023-05-19T13:50:57.885Z,96172.47
2023-05-19T13:53:24.434Z,96161.31
2023-05-19T13:55:52.100Z,96180.03
2023-05-19T13:58:21.383Z,96169.53
2023-05-19T14:00:48.040Z,96171.28
2023-05-19T14:03:14.925Z,96161.09
2023-05-19T14:05:44.030Z,96168.13
2023-05-19T14:10:55.269Z,96170.28
2023-05-19T14:13:32.639Z,96157.28
2023-05-19T14:16:02.293Z,96163.56
2023-05-19T14:18:29.125Z,96154.47
2023-05-19T14:20:56.599Z,96190.66
2023-05-19T14:23:23.956Z,96171.31
2023-05-19T14:25:50.969Z,96170.84
2023-05-19T14:28:17.619Z,96165.09
2023-05-19T14:30:45.240Z,96174.47
2023-05-19T14:33:12.159Z,96162.91
2023-05-19T14:35:41.953Z,96165.41
2023-05-19T14:38:08.525Z,96167.28
2023-05-19T14:40:35.351Z,96181.22
2023-05-19T14:43:02.274Z,96165.56
2023-05-19T14:45:32.175Z,96167.75
2023-05-19T14:47:59.604Z,96165.28
2023-05-19T14:50:27.857Z,96153.56
2023-05-19T14:52:56.639Z,96154.56
2023-05-19T14:55:23.667Z,96138.03
2023-05-19T14:57:51.271Z,96154.22
2023-05-19T15:00:18.283Z,96156.47
2023-05-19T15:02:48.112Z,96146.81
2023-05-19T15:05:21.932Z,96165.25
2023-05-19T15:07:54.809Z,96148.75
2023-05-19T15:10:21.800Z,96160.84
2023-05-19T15:12:48.498Z,96157.88
2023-05-19T15:15:15.028Z,96154.94
2023-05-19T15:17:41.628Z,96173.41
2023-05-19T15:20:08.282Z,96156.47
2023-05-19T15:22:35.074Z,96150.94
2023-05-19T15:25:02.428Z,96142.00
2023-05-19T15:27:31.416Z,96153.56
2023-05-19T15:29:58.268Z,96147.28
2023-05-19T15:32:25.124Z,96153.91
2023-05-19T15:34:54.807Z,96149.16
2023-05-19T15:37:21.670Z,96151.56
2023-05-19T15:39:48.592Z,96158.28
2023-05-19T15:42:15.217Z,96144.56
2023-05-19T15:44:42.006Z,96146.94
2023-05-19T15:47:08.909Z,96142.06
2023-05-19T15:49:35.828Z,96142.47
2023-05-19T15:52:02.674Z,96159.13
2023-05-19T15:54:29.689Z,96158.50
2023-05-19T15:56:57.715Z,96151.91
2023-05-19T15:59:24.530Z,96155.09
2023-05-19T16:01:52.975Z,96158.91
2023-05-19T16:04:20.271Z,96159.69
2023-05-19T16:06:47.065Z,96146.00
2023-05-19T16:09:14.051Z,96163.47
2023-05-19T16:11:40.786Z,96145.47
2023-05-19T16:14:07.704Z,96150.50
2023-05-19T16:16:34.558Z,96142.09
2023-05-19T16:19:01.847Z,96156.25
2023-05-19T16:21:28.741Z,96141.00
2023-05-19T16:23:55.357Z,96138.13
2023-05-19T16:26:22.651Z,96138.91
2023-05-19T16:28:49.236Z,96144.34
2023-05-19T16:31:17.771Z,96136.63
2023-05-19T16:33:48.260Z,96143.19
2023-05-19T16:36:15.099Z,96122.56
2023-05-19T16:38:42.681Z,96128.06
2023-05-19T16:41:13.771Z,96130.13
2023-05-19T16:43:40.450Z,96135.06
2023-05-19T16:46:07.164Z,96123.34
2023-05-19T16:48:33.916Z,96130.19
2023-05-19T16:51:00.751Z,96129.97
2023-05-19T16:53:27.675Z,96129.94
2023-05-19T16:55:54.427Z,96117.56
2023-05-19T16:58:21.161Z,96124.44
2023-05-19T17:00:48.452Z,96119.72
2023-05-19T17:03:16.108Z,96123.44
2023-05-19T17:05:42.981Z,96128.88
2023-05-19T17:08:09.932Z,96119.81
2023-05-19T17:10:36.534Z,96124.88
2023-05-19T17:13:03.382Z,96134.47
2023-05-19T17:15:31.767Z,96129.78
2023-05-19T17:17:58.399Z,96133.78
2023-05-19T17:20:25.070Z,96134.22
2023-05-19T17:22:52.000Z,96130.63
2023-05-19T17:25:18.515Z,96137.16
2023-05-19T17:27:45.108Z,96137.72
2023-05-19T17:30:11.703Z,96143.47
2023-05-19T17:32:39.286Z,96151.63
2023-05-19T17:35:06.290Z,96141.44
2023-05-19T17:37:33.279Z,96132.25
2023-05-19T17:40:03.221Z,96140.03
2023-05-19T17:42:29.817Z,96133.59
2023-05-19T17:44:56.445Z,96128.72
2023-05-19T17:47:23.365Z,96137.09
2023-05-19T17:49:50.106Z,96128.31
2023-05-19T17:52:20.444Z,96119.09
2023-05-19T17:54:50.128Z,96132.06
2023-05-19T17:57:17.499Z,96120.94
2023-05-19T17:59:44.429Z,96108.88
2023-05-19T18:02:11.360Z,96130.41
2023-05-19T18:04:37.974Z,96132.69
2023-05-19T18:07:04.563Z,96124.44
2023-05-19T18:09:31.538Z,96138.28
2023-05-19T18:11:59.808Z,96139.25
2023-05-19T18:14:27.887Z,96139.38
2023-05-19T18:16:56.644Z,96134.59
2023-05-19T18:19:24.321Z,96132.06
2023-05-19T18:21:53.224Z,96135.50
2023-05-19T18:24:19.790Z,96130.75
2023-05-19T18:26:46.695Z,96135.03
2023-05-19T18:29:13.199Z,96135.19
2023-05-19T18:31:39.791Z,96138.91
2023-05-19T18:34:06.560Z,96133.44
2023-05-19T18:36:33.046Z,96138.00
2023-05-19T18:39:00.016Z,96124.69
2023-05-19T18:41:26.582Z,96127.13
2023-05-19T18:43:53.130Z,96132.75
2023-05-19T18:46:19.844Z,96131.88
2023-05-19T18:48:46.818Z,96138.63
2023-05-19T18:51:13.609Z,96132.47
2023-05-19T18:53:41.001Z,96135.34
2023-05-19T18:56:10.029Z,96127.63
2023-05-19T18:58:36.693Z,96135.44
2023-05-19T19:01:03.438Z,96125.84
2023-05-19T19:03:29.982Z,96126.63
2023-05-19T19:05:56.709Z,96122.28
2023-05-19T19:08:23.433Z,96121.09
2023-05-19T19:10:50.322Z,96127.38
2023-05-19T19:13:17.588Z,96125.44
2023-05-19T19:15:44.246Z,96125.91
2023-05-19T19:20:41.367Z,96133.50
2023-05-19T19:23:09.073Z,96142.22
2023-05-19T19:25:35.938Z,96137.75
2023-05-19T19:28:06.039Z,96138.50
2023-05-19T19:30:33.882Z,96152.81
2023-05-19T19:33:01.204Z,96146.63
2023-05-19T19:35:28.580Z,96151.41
2023-05-19T19:37:55.579Z,96144.63
2023-05-19T19:40:22.516Z,96149.91
2023-05-19T19:42:49.296Z,96147.91
2023-05-19T19:45:16.094Z,96147.69
2023-05-19T19:47:42.864Z,96149.47
2023-05-19T19:50:10.722Z,96139.31
2023-05-19T19:52:39.189Z,96142.28
2023-05-19T19:55:05.953Z,96150.59
2023-05-19T19:57:33.049Z,96150.75
2023-05-19T19:59:59.822Z,96133.38
2023-05-19T20:02:29.859Z,96131.25
2023-05-19T20:04:57.840Z,96135.53
2023-05-19T20:07:26.517Z,96148.31
2023-05-19T20:09:53.551Z,96144.09
2023-05-19T20:12:20.515Z,96132.03
2023-05-19T20:14:47.130Z,96133.44
2023-05-19T20:17:14.069Z,96130.50
2023-05-19T20:19:41.535Z,96145.59
2023-05-19T20:22:08.169Z,96134.91
2023-05-19T20:24:35.453Z,96148.75
2023-05-19T20:27:02.196Z,96146.56
2023-05-19T20:29:29.566Z,96147.00
2023-05-19T20:31:58.024Z,96140.16
2023-05-19T20:34:25.691Z,96145.56
2023-05-19T20:36:52.567Z,96137.94
2023-05-19T20:39:20.303Z,96132.91
2023-05-19T20:41:47.150Z,96142.38
2023-05-19T20:44:13.847Z,96139.63
2023-05-19T20:46:42.497Z,96146.59
2023-05-19T20:49:09.028Z,96149.22
2023-05-19T20:51:35.495Z,96140.91
2023-05-19T20:54:02.205Z,96147.00
2023-05-19T20:56:29.112Z,96143.44
2023-05-19T20:58:55.982Z,96139.03
2023-05-19T21:01:23.234Z,96140.47
2023-05-19T21:03:52.117Z,96136.13
2023-05-19T21:06:21.853Z,96144.56
2023-05-19T21:08:49.565Z,96150.81
2023-05-19T21:11:16.190Z,96136.97
2023-05-19T21:13:42.891Z,96144.56
2023-05-19T21:16:09.386Z,96141.09
2023-05-19T21:21:04.696Z,96139.34
2023-05-19T21:23:31.323Z,96131.38
2023-05-19T21:25:58.070Z,96125.34
2023-05-19T21:28:25.298Z,96127.03
2023-05-19T21:30:54.973Z,96125.44
2023-05-19T21:33:21.769Z,96143.44
2023-05-19T21:35:48.492Z,96135.84
2023-05-19T21:38:23.251Z,96127.06
2023-05-19T21:40:51.152Z,96117.50
2023-05-19T21:43:17.932Z,96128.47
2023-05-19T21:45:44.547Z,96123.50
2023-05-19T21:48:11.102Z,96123.69
2023-05-19T21:50:40.015Z,96126.22
2023-05-19T21:53:06.568Z,96118.34
2023-05-19T21:55:33.443Z,96114.72
2023-05-19T21:58:01.665Z,96111.03
2023-05-19T22:00:29.720Z,96122.00
2023-05-19T22:02:56.821Z,96127.31
2023-05-19T22:05:24.679Z,96115.28
2023-05-19T22:07:53.449Z,96102.25
2023-05-19T22:10:20.568Z,96100.47
2023-05-19T22:15:20.070Z,96101.72
2023-05-19T22:17:46.947Z,96111.25
2023-05-19T22:20:13.640Z,96111.78
2023-05-19T22:22:40.364Z,96117.81
2023-05-19T22:25:06.985Z,96102.38
2023-05-19T22:27:33.638Z,96107.97
2023-05-19T22:30:00.231Z,96119.16
2023-05-19T22:32:26.871Z,96104.78
2023-05-19T22:34:56.060Z,96110.81
2023-05-19T22:37:22.732Z,96109.00
2023-05-19T22:39:49.309Z,96107.22
2023-05-19T22:42:15.781Z,96116.09
2023-05-19T22:44:42.443Z,96109.84
2023-05-19T22:47:10.488Z,96117.16
2023-05-19T22:49:37.565Z,96120.03
2023-05-19T22:52:04.817Z,96113.47
2023-05-19T22:54:31.475Z,96120.44
2023-05-19T22:56:58.150Z,96123.50
2023-05-19T22:59:24.847Z,96110.94
2023-05-19T23:01:51.684Z,96103.44
2023-05-19T23:04:18.685Z,96099.75
2023-05-19T23:06:45.196Z,96097.94
2023-05-19T23:09:11.992Z,96101.25
2023-05-19T23:11:38.575Z,96095.72
2023-05-19T23:14:05.185Z,96101.75
2023-05-19T23:16:34.843Z,96091.41
2023-05-19T23:19:01.656Z,96100.16
2023-05-19T23:21:28.294Z,96096.34
2023-05-19T23:23:55.257Z,96096.47
2023-05-19T23:26:22.790Z,96097.63
2023-05-19T23:28:49.553Z,96100.56
2023-05-19T23:31:16.243Z,96100.56
2023-05-19T23:33:43.199Z,96090.13
2023-05-19T23:36:10.035Z,96094.06
2023-05-19T23:38:37.512Z,96091.69
2023-05-19T23:41:04.250Z,96099.97
2023-05-19T23:43:30.820Z,96093.94
2023-05-19T23:45:57.401Z,96087.38
2023-05-19T23:48:24.526Z,96090.13
2023-05-19T23:50:51.428Z,96085.91
2023-05-19T23:53:18.332Z,96091.06
2023-05-19T23:55:44.986Z,96093.53
2023-05-19T23:58:11.484Z,96090.22
